sensor_id;sensor_type;location;lat;lon;timestamp;pressure;altitude;pressure_sealevel;temperature;humidity
48810;BME280;40070;47.322;18.784;2023-08-17T00:00:22;1005.29;;;22.10;80.55
48810;BME280;40070;47.322;18.784;2023-08-17T00:02:23;1005.26;;;22.20;80.39
48810;BME280;40070;47.322;18.784;2023-08-17T00:04:24;1005.26;;;22.26;80.11
48810;BME280;40070;47.322;18.784;2023-08-17T00:06:25;1005.21;;;22.36;79.84
48810;BME280;40070;47.322;18.784;2023-08-17T00:08:26;1005.19;;;22.33;80.03
48810;BME280;40070;47.322;18.784;2023-08-17T00:10:27;1005.20;;;22.40;79.92
48810;BME280;40070;47.322;18.784;2023-08-17T00:12:28;1005.20;;;22.41;79.91
48810;BME280;40070;47.322;18.784;2023-08-17T00:14:29;1005.19;;;22.24;81.02
48810;BME280;40070;47.322;18.784;2023-08-17T00:16:30;1005.19;;;22.20;81.97
48810;BME280;40070;47.322;18.784;2023-08-17T00:18:32;1005.12;;;22.19;81.56
48810;BME280;40070;47.322;18.784;2023-08-17T00:20:33;1005.12;;;22.17;81.87
48810;BME280;40070;47.322;18.784;2023-08-17T00:22:34;1005.09;;;22.05;82.16
48810;BME280;40070;47.322;18.784;2023-08-17T00:24:35;1005.07;;;22.14;81.55
48810;BME280;40070;47.322;18.784;2023-08-17T00:26:36;1005.09;;;22.23;81.24
48810;BME280;40070;47.322;18.784;2023-08-17T00:28:37;1005.03;;;22.25;81.29
48810;BME280;40070;47.322;18.784;2023-08-17T00:30:38;1004.99;;;22.21;81.34
48810;BME280;40070;47.322;18.784;2023-08-17T00:32:39;1005.01;;;22.04;82.01
48810;BME280;40070;47.322;18.784;2023-08-17T00:34:40;1004.95;;;22.35;80.75
48810;BME280;40070;47.322;18.784;2023-08-17T00:36:41;1004.91;;;22.39;80.32
48810;BME280;40070;47.322;18.784;2023-08-17T00:38:42;1004.86;;;22.45;80.49
48810;BME280;40070;47.322;18.784;2023-08-17T00:40:43;1004.85;;;22.37;80.33
48810;BME280;40070;47.322;18.784;2023-08-17T00:42:44;1004.86;;;22.22;81.11
48810;BME280;40070;47.322;18.784;2023-08-17T00:44:45;1004.82;;;22.48;79.64
48810;BME280;40070;47.322;18.784;2023-08-17T00:46:45;1004.82;;;22.45;79.60
48810;BME280;40070;47.322;18.784;2023-08-17T00:48:47;1004.83;;;22.34;79.89
48810;BME280;40070;47.322;18.784;2023-08-17T00:50:49;1004.84;;;22.37;79.84
48810;BME280;40070;47.322;18.784;2023-08-17T00:52:51;1004.85;;;22.38;79.75
48810;BME280;40070;47.322;18.784;2023-08-17T00:54:52;1004.82;;;22.26;80.35
48810;BME280;40070;47.322;18.784;2023-08-17T00:56:54;1004.78;;;22.25;80.43
48810;BME280;40070;47.322;18.784;2023-08-17T00:58:55;1004.83;;;22.28;80.45
48810;BME280;40070;47.322;18.784;2023-08-17T01:00:56;1004.92;;;22.18;81.00
48810;BME280;40070;47.322;18.784;2023-08-17T01:02:57;1004.93;;;22.16;81.62
48810;BME280;40070;47.322;18.784;2023-08-17T01:04:58;1005.00;;;22.05;83.01
48810;BME280;40070;47.322;18.784;2023-08-17T01:06:59;1005.03;;;22.13;82.45
48810;BME280;40070;47.322;18.784;2023-08-17T01:09:00;1005.09;;;22.31;82.04
48810;BME280;40070;47.322;18.784;2023-08-17T01:11:18;1005.16;;;22.38;81.70
48810;BME280;40070;47.322;18.784;2023-08-17T01:13:22;1005.15;;;22.33;81.39
48810;BME280;40070;47.322;18.784;2023-08-17T01:15:27;1005.16;;;22.30;81.20
48810;BME280;40070;47.322;18.784;2023-08-17T01:17:43;1005.15;;;22.45;80.37
48810;BME280;40070;47.322;18.784;2023-08-17T01:19:44;1005.20;;;22.44;79.99
48810;BME280;40070;47.322;18.784;2023-08-17T01:21:48;1005.24;;;22.38;79.89
48810;BME280;40070;47.322;18.784;2023-08-17T01:23:50;1005.23;;;22.17;81.37
48810;BME280;40070;47.322;18.784;2023-08-17T01:25:51;1005.26;;;22.20;81.17
48810;BME280;40070;47.322;18.784;2023-08-17T01:27:52;1005.27;;;22.00;81.62
48810;BME280;40070;47.322;18.784;2023-08-17T01:29:53;1005.26;;;22.03;81.58
48810;BME280;40070;47.322;18.784;2023-08-17T01:31:57;1005.24;;;22.22;81.01
48810;BME280;40070;47.322;18.784;2023-08-17T01:34:04;1005.22;;;22.24;80.90
48810;BME280;40070;47.322;18.784;2023-08-17T01:38:28;1005.14;;;22.15;81.16
48810;BME280;40070;47.322;18.784;2023-08-17T01:40:31;1005.10;;;22.22;80.60
48810;BME280;40070;47.322;18.784;2023-08-17T01:42:33;1005.05;;;22.14;80.88
48810;BME280;40070;47.322;18.784;2023-08-17T01:44:34;1004.99;;;21.94;81.83
48810;BME280;40070;47.322;18.784;2023-08-17T01:46:35;1005.00;;;21.88;82.43
48810;BME280;40070;47.322;18.784;2023-08-17T01:48:36;1005.01;;;21.98;82.02
48810;BME280;40070;47.322;18.784;2023-08-17T01:50:37;1005.05;;;22.05;81.66
48810;BME280;40070;47.322;18.784;2023-08-17T01:52:38;1005.05;;;22.11;81.41
48810;BME280;40070;47.322;18.784;2023-08-17T01:54:39;1005.02;;;22.24;80.48
48810;BME280;40070;47.322;18.784;2023-08-17T01:56:40;1004.97;;;22.11;80.41
48810;BME280;40070;47.322;18.784;2023-08-17T01:58:41;1005.05;;;22.09;80.02
48810;BME280;40070;47.322;18.784;2023-08-17T02:00:42;1005.05;;;22.02;80.22
48810;BME280;40070;47.322;18.784;2023-08-17T02:02:43;1005.03;;;21.96;81.01
48810;BME280;40070;47.322;18.784;2023-08-17T02:04:44;1004.95;;;21.78;81.48
48810;BME280;40070;47.322;18.784;2023-08-17T02:06:45;1005.00;;;21.69;82.46
48810;BME280;40070;47.322;18.784;2023-08-17T02:08:46;1005.00;;;21.80;81.71
48810;BME280;40070;47.322;18.784;2023-08-17T02:10:47;1005.05;;;21.71;81.99
48810;BME280;40070;47.322;18.784;2023-08-17T02:12:48;1005.14;;;21.44;84.12
48810;BME280;40070;47.322;18.784;2023-08-17T02:14:49;1005.05;;;21.65;83.58
48810;BME280;40070;47.322;18.784;2023-08-17T02:16:50;1005.02;;;21.77;82.87
48810;BME280;40070;47.322;18.784;2023-08-17T02:18:52;1005.05;;;21.66;84.03
48810;BME280;40070;47.322;18.784;2023-08-17T02:20:53;1005.07;;;21.67;84.94
48810;BME280;40070;47.322;18.784;2023-08-17T02:22:54;1005.06;;;21.69;84.89
48810;BME280;40070;47.322;18.784;2023-08-17T02:24:55;1005.03;;;21.75;84.54
48810;BME280;40070;47.322;18.784;2023-08-17T02:26:56;1005.05;;;22.00;83.24
48810;BME280;40070;47.322;18.784;2023-08-17T02:28:57;1005.07;;;22.08;83.00
48810;BME280;40070;47.322;18.784;2023-08-17T02:30:58;1005.02;;;21.77;84.31
48810;BME280;40070;47.322;18.784;2023-08-17T02:32:59;1005.03;;;21.77;85.16
48810;BME280;40070;47.322;18.784;2023-08-17T02:35:01;1005.05;;;21.97;83.80
48810;BME280;40070;47.322;18.784;2023-08-17T02:37:02;1005.07;;;21.97;84.02
48810;BME280;40070;47.322;18.784;2023-08-17T02:39:03;1005.02;;;22.06;83.76
48810;BME280;40070;47.322;18.784;2023-08-17T02:41:04;1005.05;;;22.17;82.88
48810;BME280;40070;47.322;18.784;2023-08-17T02:43:05;1005.03;;;22.19;82.49
48810;BME280;40070;47.322;18.784;2023-08-17T02:45:06;1005.02;;;22.26;82.65
48810;BME280;40070;47.322;18.784;2023-08-17T02:47:07;1005.03;;;22.24;82.60
48810;BME280;40070;47.322;18.784;2023-08-17T02:49:08;1004.96;;;22.02;84.00
48810;BME280;40070;47.322;18.784;2023-08-17T02:51:09;1004.94;;;21.65;86.98
48810;BME280;40070;47.322;18.784;2023-08-17T02:53:10;1004.95;;;22.12;84.38
48810;BME280;40070;47.322;18.784;2023-08-17T02:55:11;1005.01;;;22.19;83.99
48810;BME280;40070;47.322;18.784;2023-08-17T02:57:13;1004.97;;;22.34;83.39
48810;BME280;40070;47.322;18.784;2023-08-17T02:59:14;1004.91;;;22.41;82.86
48810;BME280;40070;47.322;18.784;2023-08-17T03:01:15;1004.88;;;22.36;83.08
48810;BME280;40070;47.322;18.784;2023-08-17T03:03:16;1004.88;;;22.32;83.10
48810;BME280;40070;47.322;18.784;2023-08-17T03:05:17;1004.92;;;22.18;84.20
48810;BME280;40070;47.322;18.784;2023-08-17T03:07:18;1004.89;;;22.09;84.91
48810;BME280;40070;47.322;18.784;2023-08-17T03:09:19;1004.91;;;22.10;84.99
48810;BME280;40070;47.322;18.784;2023-08-17T03:11:20;1004.90;;;22.13;84.94
48810;BME280;40070;47.322;18.784;2023-08-17T03:13:21;1004.92;;;22.11;85.72
48810;BME280;40070;47.322;18.784;2023-08-17T03:15:22;1004.86;;;22.29;84.76
48810;BME280;40070;47.322;18.784;2023-08-17T03:17:23;1004.85;;;22.35;84.27
48810;BME280;40070;47.322;18.784;2023-08-17T03:19:24;1004.87;;;22.35;84.47
48810;BME280;40070;47.322;18.784;2023-08-17T03:21:25;1004.91;;;22.24;84.57
48810;BME280;40070;47.322;18.784;2023-08-17T03:23:26;1004.93;;;22.20;85.25
48810;BME280;40070;47.322;18.784;2023-08-17T03:25:27;1004.93;;;22.27;85.33
48810;BME280;40070;47.322;18.784;2023-08-17T03:27:28;1004.92;;;22.40;84.29
48810;BME280;40070;47.322;18.784;2023-08-17T03:29:29;1004.93;;;22.32;84.55
48810;BME280;40070;47.322;18.784;2023-08-17T03:31:30;1004.89;;;22.37;84.51
48810;BME280;40070;47.322;18.784;2023-08-17T03:33:31;1004.88;;;22.38;84.57
48810;BME280;40070;47.322;18.784;2023-08-17T03:35:32;1004.78;;;22.26;85.00
48810;BME280;40070;47.322;18.784;2023-08-17T03:37:33;1004.73;;;22.20;84.77
48810;BME280;40070;47.322;18.784;2023-08-17T03:39:34;1004.73;;;22.24;85.21
48810;BME280;40070;47.322;18.784;2023-08-17T03:41:35;1004.77;;;22.05;85.86
48810;BME280;40070;47.322;18.784;2023-08-17T03:43:36;1004.72;;;22.34;84.89
48810;BME280;40070;47.322;18.784;2023-08-17T03:45:37;1004.72;;;22.38;84.39
48810;BME280;40070;47.322;18.784;2023-08-17T03:47:38;1004.74;;;22.49;83.72
48810;BME280;40070;47.322;18.784;2023-08-17T03:49:39;1004.77;;;22.39;83.52
48810;BME280;40070;47.322;18.784;2023-08-17T03:51:40;1004.80;;;22.31;84.16
48810;BME280;40070;47.322;18.784;2023-08-17T03:53:41;1004.84;;;22.29;84.43
48810;BME280;40070;47.322;18.784;2023-08-17T03:55:46;1004.89;;;22.21;84.74
48810;BME280;40070;47.322;18.784;2023-08-17T03:57:46;1004.83;;;22.38;84.54
48810;BME280;40070;47.322;18.784;2023-08-17T03:59:47;1004.86;;;22.33;84.65
48810;BME280;40070;47.322;18.784;2023-08-17T04:01:50;1004.88;;;22.47;83.55
48810;BME280;40070;47.322;18.784;2023-08-17T04:03:51;1004.87;;;22.48;83.16
48810;BME280;40070;47.322;18.784;2023-08-17T04:05:52;1004.90;;;22.38;83.86
48810;BME280;40070;47.322;18.784;2023-08-17T04:07:53;1004.95;;;22.33;83.83
48810;BME280;40070;47.322;18.784;2023-08-17T04:09:53;1004.93;;;22.30;83.88
48810;BME280;40070;47.322;18.784;2023-08-17T04:11:54;1004.96;;;22.32;83.68
48810;BME280;40070;47.322;18.784;2023-08-17T04:13:55;1004.95;;;22.37;83.99
48810;BME280;40070;47.322;18.784;2023-08-17T04:15:56;1004.92;;;22.45;83.73
48810;BME280;40070;47.322;18.784;2023-08-17T04:17:57;1004.96;;;22.44;83.93
48810;BME280;40070;47.322;18.784;2023-08-17T04:19:58;1004.96;;;22.48;83.56
48810;BME280;40070;47.322;18.784;2023-08-17T04:21:59;1004.94;;;22.50;83.79
48810;BME280;40070;47.322;18.784;2023-08-17T04:24:00;1004.96;;;22.62;83.08
48810;BME280;40070;47.322;18.784;2023-08-17T04:26:01;1004.96;;;22.55;83.78
48810;BME280;40070;47.322;18.784;2023-08-17T04:28:02;1004.95;;;22.43;84.78
48810;BME280;40070;47.322;18.784;2023-08-17T04:30:04;1004.95;;;22.46;84.72
48810;BME280;40070;47.322;18.784;2023-08-17T04:32:05;1004.93;;;22.41;84.89
48810;BME280;40070;47.322;18.784;2023-08-17T04:34:06;1004.96;;;22.35;85.42
48810;BME280;40070;47.322;18.784;2023-08-17T04:36:07;1004.94;;;22.43;85.23
48810;BME280;40070;47.322;18.784;2023-08-17T04:38:08;1004.95;;;22.38;85.51
48810;BME280;40070;47.322;18.784;2023-08-17T04:40:09;1004.91;;;22.58;84.65
48810;BME280;40070;47.322;18.784;2023-08-17T04:42:10;1004.88;;;22.72;83.55
48810;BME280;40070;47.322;18.784;2023-08-17T04:44:11;1004.89;;;22.67;83.43
48810;BME280;40070;47.322;18.784;2023-08-17T04:46:12;1004.95;;;22.75;82.85
48810;BME280;40070;47.322;18.784;2023-08-17T04:48:13;1004.96;;;22.74;82.82
48810;BME280;40070;47.322;18.784;2023-08-17T04:50:14;1004.94;;;22.69;83.31
48810;BME280;40070;47.322;18.784;2023-08-17T04:52:15;1004.97;;;22.79;82.84
48810;BME280;40070;47.322;18.784;2023-08-17T04:54:16;1004.98;;;22.83;82.96
48810;BME280;40070;47.322;18.784;2023-08-17T04:56:17;1004.97;;;22.85;82.88
48810;BME280;40070;47.322;18.784;2023-08-17T04:58:18;1004.97;;;23.02;82.21
48810;BME280;40070;47.322;18.784;2023-08-17T05:00:19;1004.98;;;22.95;82.39
48810;BME280;40070;47.322;18.784;2023-08-17T05:02:20;1004.99;;;22.96;82.08
48810;BME280;40070;47.322;18.784;2023-08-17T05:04:21;1005.00;;;22.81;83.22
48810;BME280;40070;47.322;18.784;2023-08-17T05:06:22;1005.01;;;22.75;83.77
48810;BME280;40070;47.322;18.784;2023-08-17T05:08:23;1005.05;;;22.77;84.06
48810;BME280;40070;47.322;18.784;2023-08-17T05:10:24;1005.08;;;22.74;84.78
48810;BME280;40070;47.322;18.784;2023-08-17T05:12:25;1005.08;;;22.78;84.64
48810;BME280;40070;47.322;18.784;2023-08-17T05:14:26;1005.03;;;22.48;86.25
48810;BME280;40070;47.322;18.784;2023-08-17T05:16:27;1005.01;;;22.72;85.74
48810;BME280;40070;47.322;18.784;2023-08-17T05:18:28;1004.99;;;22.57;86.71
48810;BME280;40070;47.322;18.784;2023-08-17T05:20:29;1004.99;;;22.70;86.13
48810;BME280;40070;47.322;18.784;2023-08-17T05:22:30;1005.02;;;22.87;85.04
48810;BME280;40070;47.322;18.784;2023-08-17T05:24:31;1004.96;;;23.07;83.92
48810;BME280;40070;47.322;18.784;2023-08-17T05:26:32;1004.98;;;23.06;83.44
48810;BME280;40070;47.322;18.784;2023-08-17T05:28:33;1004.98;;;23.15;83.32
48810;BME280;40070;47.322;18.784;2023-08-17T05:30:34;1004.96;;;23.18;83.00
48810;BME280;40070;47.322;18.784;2023-08-17T05:32:35;1005.00;;;23.27;82.41
48810;BME280;40070;47.322;18.784;2023-08-17T05:34:36;1004.98;;;23.28;82.05
48810;BME280;40070;47.322;18.784;2023-08-17T05:36:37;1005.01;;;23.39;81.42
48810;BME280;40070;47.322;18.784;2023-08-17T05:38:38;1005.04;;;23.23;82.01
48810;BME280;40070;47.322;18.784;2023-08-17T05:40:39;1005.06;;;23.27;82.74
48810;BME280;40070;47.322;18.784;2023-08-17T05:42:39;1005.06;;;23.34;82.86
48810;BME280;40070;47.322;18.784;2023-08-17T05:44:40;1005.06;;;23.34;82.83
48810;BME280;40070;47.322;18.784;2023-08-17T05:46:42;1005.05;;;23.42;82.91
48810;BME280;40070;47.322;18.784;2023-08-17T05:48:42;1005.06;;;23.53;82.08
48810;BME280;40070;47.322;18.784;2023-08-17T05:50:43;1005.05;;;23.50;81.60
48810;BME280;40070;47.322;18.784;2023-08-17T05:52:44;1005.04;;;23.56;81.35
48810;BME280;40070;47.322;18.784;2023-08-17T05:54:45;1004.99;;;23.58;81.22
48810;BME280;40070;47.322;18.784;2023-08-17T05:56:46;1005.00;;;23.58;81.39
48810;BME280;40070;47.322;18.784;2023-08-17T05:58:47;1005.05;;;23.63;81.28
48810;BME280;40070;47.322;18.784;2023-08-17T06:00:48;1005.06;;;23.72;80.81
48810;BME280;40070;47.322;18.784;2023-08-17T06:02:49;1005.07;;;23.80;80.46
48810;BME280;40070;47.322;18.784;2023-08-17T06:04:50;1005.10;;;23.75;80.79
48810;BME280;40070;47.322;18.784;2023-08-17T06:06:51;1005.07;;;23.79;80.60
48810;BME280;40070;47.322;18.784;2023-08-17T06:08:52;1005.05;;;23.70;81.32
48810;BME280;40070;47.322;18.784;2023-08-17T06:10:53;1005.04;;;23.67;82.32
48810;BME280;40070;47.322;18.784;2023-08-17T06:12:54;1005.03;;;23.50;83.66
48810;BME280;40070;47.322;18.784;2023-08-17T06:14:56;1004.96;;;23.21;82.59
48810;BME280;40070;47.322;18.784;2023-08-17T06:16:57;1004.97;;;23.38;83.01
48810;BME280;40070;47.322;18.784;2023-08-17T06:18:58;1004.91;;;23.39;83.94
48810;BME280;40070;47.322;18.784;2023-08-17T06:20:59;1004.85;;;23.18;83.91
48810;BME280;40070;47.322;18.784;2023-08-17T06:23:00;1004.85;;;23.30;82.84
48810;BME280;40070;47.322;18.784;2023-08-17T06:25:01;1004.81;;;23.16;84.38
48810;BME280;40070;47.322;18.784;2023-08-17T06:27:02;1004.84;;;23.28;83.54
48810;BME280;40070;47.322;18.784;2023-08-17T06:29:03;1004.83;;;23.60;83.04
48810;BME280;40070;47.322;18.784;2023-08-17T06:31:04;1004.85;;;23.64;83.54
48810;BME280;40070;47.322;18.784;2023-08-17T06:33:05;1004.88;;;23.74;83.26
48810;BME280;40070;47.322;18.784;2023-08-17T06:35:06;1004.92;;;23.80;81.74
48810;BME280;40070;47.322;18.784;2023-08-17T06:37:07;1004.91;;;23.77;82.79
48810;BME280;40070;47.322;18.784;2023-08-17T06:39:08;1004.86;;;23.59;84.43
48810;BME280;40070;47.322;18.784;2023-08-17T06:41:09;1004.84;;;23.47;85.13
48810;BME280;40070;47.322;18.784;2023-08-17T06:43:10;1004.80;;;23.40;84.27
48810;BME280;40070;47.322;18.784;2023-08-17T06:45:11;1004.78;;;23.69;83.72
48810;BME280;40070;47.322;18.784;2023-08-17T06:47:12;1004.85;;;23.89;82.74
48810;BME280;40070;47.322;18.784;2023-08-17T06:49:13;1004.78;;;23.84;82.95
48810;BME280;40070;47.322;18.784;2023-08-17T06:51:14;1004.81;;;23.82;83.44
48810;BME280;40070;47.322;18.784;2023-08-17T06:53:15;1004.82;;;24.00;83.16
48810;BME280;40070;47.322;18.784;2023-08-17T06:55:16;1004.84;;;23.83;84.93
48810;BME280;40070;47.322;18.784;2023-08-17T06:57:17;1004.85;;;23.94;84.30
48810;BME280;40070;47.322;18.784;2023-08-17T06:59:18;1004.86;;;24.11;83.26
48810;BME280;40070;47.322;18.784;2023-08-17T07:01:19;1004.83;;;24.01;82.31
48810;BME280;40070;47.322;18.784;2023-08-17T07:03:20;1004.88;;;24.16;82.29
48810;BME280;40070;47.322;18.784;2023-08-17T07:05:21;1004.87;;;24.11;81.21
48810;BME280;40070;47.322;18.784;2023-08-17T07:07:22;1004.91;;;24.27;81.84
48810;BME280;40070;47.322;18.784;2023-08-17T07:09:23;1004.95;;;24.26;83.04
48810;BME280;40070;47.322;18.784;2023-08-17T07:11:24;1004.95;;;24.32;81.82
48810;BME280;40070;47.322;18.784;2023-08-17T07:13:25;1004.99;;;24.35;82.26
48810;BME280;40070;47.322;18.784;2023-08-17T07:15:26;1004.97;;;24.42;81.25
48810;BME280;40070;47.322;18.784;2023-08-17T07:17:27;1005.01;;;24.28;79.62
48810;BME280;40070;47.322;18.784;2023-08-17T07:19:28;1004.99;;;24.45;80.46
48810;BME280;40070;47.322;18.784;2023-08-17T07:21:29;1004.95;;;24.38;80.19
48810;BME280;40070;47.322;18.784;2023-08-17T07:23:30;1004.96;;;24.43;80.98
48810;BME280;40070;47.322;18.784;2023-08-17T07:25:31;1004.96;;;24.50;80.94
48810;BME280;40070;47.322;18.784;2023-08-17T07:27:32;1004.97;;;24.54;81.50
48810;BME280;40070;47.322;18.784;2023-08-17T07:29:33;1004.93;;;24.65;76.94
48810;BME280;40070;47.322;18.784;2023-08-17T07:31:34;1004.89;;;24.84;76.72
48810;BME280;40070;47.322;18.784;2023-08-17T07:33:35;1004.90;;;24.92;77.41
48810;BME280;40070;47.322;18.784;2023-08-17T07:35:36;1004.91;;;24.78;78.00
48810;BME280;40070;47.322;18.784;2023-08-17T07:37:37;1004.91;;;24.76;77.31
48810;BME280;40070;47.322;18.784;2023-08-17T07:39:38;1004.93;;;24.89;74.78
48810;BME280;40070;47.322;18.784;2023-08-17T07:41:39;1004.94;;;25.07;76.58
48810;BME280;40070;47.322;18.784;2023-08-17T07:43:40;1004.92;;;24.98;76.00
48810;BME280;40070;47.322;18.784;2023-08-17T07:45:41;1004.96;;;24.89;76.80
48810;BME280;40070;47.322;18.784;2023-08-17T07:47:42;1004.98;;;25.00;72.25
48810;BME280;40070;47.322;18.784;2023-08-17T07:49:43;1004.97;;;25.01;74.08
48810;BME280;40070;47.322;18.784;2023-08-17T07:51:44;1004.98;;;25.14;73.77
48810;BME280;40070;47.322;18.784;2023-08-17T07:53:45;1005.00;;;25.38;74.30
48810;BME280;40070;47.322;18.784;2023-08-17T07:55:46;1004.98;;;25.23;71.08
48810;BME280;40070;47.322;18.784;2023-08-17T07:57:47;1005.01;;;25.43;68.79
48810;BME280;40070;47.322;18.784;2023-08-17T07:59:48;1005.01;;;25.45;68.80
48810;BME280;40070;47.322;18.784;2023-08-17T08:01:49;1005.03;;;25.51;66.54
48810;BME280;40070;47.322;18.784;2023-08-17T08:03:50;1005.02;;;25.48;67.27
48810;BME280;40070;47.322;18.784;2023-08-17T08:05:51;1004.99;;;25.72;65.36
48810;BME280;40070;47.322;18.784;2023-08-17T08:07:52;1004.95;;;25.83;66.50
48810;BME280;40070;47.322;18.784;2023-08-17T08:09:53;1005.01;;;26.10;64.71
48810;BME280;40070;47.322;18.784;2023-08-17T08:11:54;1004.94;;;26.15;64.05
48810;BME280;40070;47.322;18.784;2023-08-17T08:13:55;1004.96;;;26.40;65.06
48810;BME280;40070;47.322;18.784;2023-08-17T08:15:56;1004.97;;;26.40;63.67
48810;BME280;40070;47.322;18.784;2023-08-17T08:17:57;1005.00;;;26.37;63.12
48810;BME280;40070;47.322;18.784;2023-08-17T08:19:58;1004.98;;;26.31;62.86
48810;BME280;40070;47.322;18.784;2023-08-17T08:21:59;1004.98;;;26.30;63.30
48810;BME280;40070;47.322;18.784;2023-08-17T08:24:00;1005.04;;;26.41;62.94
48810;BME280;40070;47.322;18.784;2023-08-17T08:26:01;1005.03;;;26.36;61.13
48810;BME280;40070;47.322;18.784;2023-08-17T08:28:02;1005.02;;;26.43;62.17
48810;BME280;40070;47.322;18.784;2023-08-17T08:30:04;1005.05;;;26.48;61.90
48810;BME280;40070;47.322;18.784;2023-08-17T08:32:05;1005.05;;;26.42;59.84
48810;BME280;40070;47.322;18.784;2023-08-17T08:34:06;1005.04;;;26.28;60.56
48810;BME280;40070;47.322;18.784;2023-08-17T08:36:07;1005.06;;;26.49;59.59
48810;BME280;40070;47.322;18.784;2023-08-17T08:38:08;1004.99;;;26.70;60.68
48810;BME280;40070;47.322;18.784;2023-08-17T08:40:10;1005.01;;;26.70;58.91
48810;BME280;40070;47.322;18.784;2023-08-17T08:42:11;1004.93;;;26.62;58.21
48810;BME280;40070;47.322;18.784;2023-08-17T08:44:12;1004.95;;;26.63;58.00
48810;BME280;40070;47.322;18.784;2023-08-17T08:46:14;1004.95;;;26.79;59.25
48810;BME280;40070;47.322;18.784;2023-08-17T08:48:18;1004.91;;;27.14;58.27
48810;BME280;40070;47.322;18.784;2023-08-17T08:50:20;1004.95;;;26.82;59.06
48810;BME280;40070;47.322;18.784;2023-08-17T08:52:22;1004.96;;;26.74;58.75
48810;BME280;40070;47.322;18.784;2023-08-17T08:54:23;1004.92;;;26.80;59.34
48810;BME280;40070;47.322;18.784;2023-08-17T08:56:25;1004.89;;;26.92;57.47
48810;BME280;40070;47.322;18.784;2023-08-17T08:58:27;1004.89;;;26.86;60.44
48810;BME280;40070;47.322;18.784;2023-08-17T09:00:28;1004.88;;;26.91;59.66
48810;BME280;40070;47.322;18.784;2023-08-17T09:02:30;1004.88;;;26.85;59.68
48810;BME280;40070;47.322;18.784;2023-08-17T09:04:31;1004.83;;;27.10;58.78
48810;BME280;40070;47.322;18.784;2023-08-17T09:06:34;1004.78;;;27.06;59.76
48810;BME280;40070;47.322;18.784;2023-08-17T09:08:36;1004.79;;;27.02;59.90
48810;BME280;40070;47.322;18.784;2023-08-17T09:10:37;1004.75;;;27.15;58.11
48810;BME280;40070;47.322;18.784;2023-08-17T09:12:39;1004.75;;;27.18;59.46
48810;BME280;40070;47.322;18.784;2023-08-17T09:14:40;1004.73;;;27.39;58.51
48810;BME280;40070;47.322;18.784;2023-08-17T09:16:41;1004.75;;;27.67;57.17
48810;BME280;40070;47.322;18.784;2023-08-17T09:18:42;1004.70;;;27.74;57.90
48810;BME280;40070;47.322;18.784;2023-08-17T09:20:43;1004.72;;;27.69;56.42
48810;BME280;40070;47.322;18.784;2023-08-17T09:22:45;1004.67;;;27.82;54.84
48810;BME280;40070;47.322;18.784;2023-08-17T09:24:46;1004.69;;;28.04;55.62
48810;BME280;40070;47.322;18.784;2023-08-17T09:26:49;1004.69;;;27.97;55.77
48810;BME280;40070;47.322;18.784;2023-08-17T09:28:50;1004.69;;;27.81;55.08
48810;BME280;40070;47.322;18.784;2023-08-17T09:30:56;1004.69;;;27.70;56.88
48810;BME280;40070;47.322;18.784;2023-08-17T09:32:57;1004.71;;;27.27;56.73
48810;BME280;40070;47.322;18.784;2023-08-17T09:35:05;1004.65;;;27.50;56.23
48810;BME280;40070;47.322;18.784;2023-08-17T09:37:06;1004.63;;;27.20;56.54
48810;BME280;40070;47.322;18.784;2023-08-17T09:39:07;1004.63;;;27.32;56.75
48810;BME280;40070;47.322;18.784;2023-08-17T09:41:08;1004.60;;;27.53;58.44
48810;BME280;40070;47.322;18.784;2023-08-17T09:43:09;1004.58;;;27.88;56.10
48810;BME280;40070;47.322;18.784;2023-08-17T09:45:10;1004.53;;;27.91;53.97
48810;BME280;40070;47.322;18.784;2023-08-17T09:47:11;1004.42;;;27.94;53.24
48810;BME280;40070;47.322;18.784;2023-08-17T09:49:12;1004.44;;;27.87;54.97
48810;BME280;40070;47.322;18.784;2023-08-17T09:51:16;1004.43;;;27.75;54.12
48810;BME280;40070;47.322;18.784;2023-08-17T09:53:18;1004.44;;;27.56;54.06
48810;BME280;40070;47.322;18.784;2023-08-17T09:55:19;1004.45;;;27.40;54.16
48810;BME280;40070;47.322;18.784;2023-08-17T09:57:21;1004.44;;;27.27;54.87
48810;BME280;40070;47.322;18.784;2023-08-17T09:59:22;1004.43;;;27.38;55.71
48810;BME280;40070;47.322;18.784;2023-08-17T10:01:23;1004.42;;;27.41;55.04
48810;BME280;40070;47.322;18.784;2023-08-17T10:03:26;1004.43;;;27.54;53.81
48810;BME280;40070;47.322;18.784;2023-08-17T10:05:28;1004.42;;;27.50;55.15
48810;BME280;40070;47.322;18.784;2023-08-17T10:07:31;1004.31;;;27.42;54.12
48810;BME280;40070;47.322;18.784;2023-08-17T10:09:34;1004.38;;;27.56;54.00
48810;BME280;40070;47.322;18.784;2023-08-17T10:11:37;1004.33;;;27.60;52.88
48810;BME280;40070;47.322;18.784;2023-08-17T10:13:43;1004.39;;;27.73;53.55
48810;BME280;40070;47.322;18.784;2023-08-17T10:20:18;1004.33;;;28.28;52.36
48810;BME280;40070;47.322;18.784;2023-08-17T10:22:26;1004.30;;;28.46;52.35
48810;BME280;40070;47.322;18.784;2023-08-17T10:24:28;1004.32;;;28.58;52.30
48810;BME280;40070;47.322;18.784;2023-08-17T10:26:29;1004.28;;;28.96;51.29
48810;BME280;40070;47.322;18.784;2023-08-17T10:28:31;1004.35;;;29.03;50.87
48810;BME280;40070;47.322;18.784;2023-08-17T10:30:32;1004.27;;;29.06;50.80
48810;BME280;40070;47.322;18.784;2023-08-17T10:32:34;1004.35;;;29.32;50.04
48810;BME280;40070;47.322;18.784;2023-08-17T10:34:35;1004.30;;;29.11;50.27
48810;BME280;40070;47.322;18.784;2023-08-17T10:36:36;1004.28;;;29.12;49.47
48810;BME280;40070;47.322;18.784;2023-08-17T10:38:38;1004.31;;;29.29;49.91
48810;BME280;40070;47.322;18.784;2023-08-17T10:40:41;1004.26;;;29.40;50.01
48810;BME280;40070;47.322;18.784;2023-08-17T10:42:43;1004.31;;;29.23;49.69
48810;BME280;40070;47.322;18.784;2023-08-17T10:44:44;1004.20;;;29.48;50.30
48810;BME280;40070;47.322;18.784;2023-08-17T10:46:45;1004.30;;;29.64;49.76
48810;BME280;40070;47.322;18.784;2023-08-17T10:48:47;1004.25;;;29.57;49.20